createdAt,value
2019-04-05T00:04:55.205Z,16.90
2019-04-05T00:10:59.658Z,16.43
2019-04-05T00:17:04.368Z,12.83
2019-04-05T00:23:08.902Z,12.87
2019-04-05T00:29:13.370Z,13.27
2019-04-05T00:35:17.725Z,12.13
2019-04-05T00:41:22.141Z,11.97
2019-04-05T00:47:26.509Z,12.47
2019-04-05T00:53:30.932Z,11.20
2019-04-05T00:59:35.297Z,12.90
2019-04-05T01:05:39.669Z,13.60
2019-04-05T01:11:44.293Z,13.10
2019-04-05T01:17:49.171Z,12.27
2019-04-05T01:23:56.467Z,12.33
2019-04-05T01:30:01.073Z,14.50
2019-04-05T01:36:05.411Z,14.73
2019-04-05T01:42:09.765Z,13.33
2019-04-05T01:48:14.083Z,14.87
2019-04-05T01:54:18.399Z,14.03
2019-04-05T02:00:22.892Z,15.93
2019-04-05T02:06:27.542Z,15.53
2019-04-05T02:12:31.859Z,16.97
2019-04-05T02:18:36.296Z,16.83
2019-04-05T02:24:40.601Z,15.17
2019-04-05T02:30:44.991Z,17.13
2019-04-05T02:36:49.437Z,15.70
2019-04-05T02:42:55.464Z,17.30
2019-04-05T02:49:02.846Z,16.80
2019-04-05T02:55:07.671Z,18.87
2019-04-05T03:01:12.112Z,16.07
2019-04-05T03:07:16.713Z,17.30
2019-04-05T03:13:22.098Z,16.93
2019-04-05T03:19:29.890Z,16.37
2019-04-05T03:25:34.398Z,17.60
2019-04-05T03:31:39.188Z,16.67
2019-04-05T03:37:43.494Z,17.33
2019-04-05T03:43:48.032Z,16.87
2019-04-05T03:49:52.211Z,17.63
2019-04-05T03:55:56.909Z,18.03
2019-04-05T04:02:01.364Z,20.53
2019-04-05T04:08:05.844Z,19.13
2019-04-05T04:14:10.949Z,19.23
2019-04-05T04:20:39.088Z,21.23
2019-04-05T04:26:44.045Z,20.87
2019-04-05T04:32:48.649Z,23.73
2019-04-05T04:38:52.870Z,51.77
2019-04-05T04:45:11.039Z,24.73
2019-04-05T04:51:03.557Z,20.03
2019-04-05T04:57:07.972Z,20.20
2019-04-05T05:03:12.368Z,22.53
2019-04-05T05:09:16.763Z,19.93
2019-04-05T05:15:21.163Z,20.03
2019-04-05T05:21:25.946Z,19.47
2019-04-05T05:27:30.746Z,20.77
2019-04-05T05:33:35.165Z,22.60
2019-04-05T05:39:39.352Z,24.73
2019-04-05T05:45:43.516Z,24.80
2019-04-05T05:51:49.365Z,24.07
2019-04-05T05:57:54.950Z,24.23
2019-04-05T06:03:59.878Z,24.07
2019-04-05T06:10:04.225Z,22.70
2019-04-05T06:16:08.514Z,22.17
2019-04-05T06:22:12.755Z,23.43
2019-04-05T06:28:16.925Z,23.97
2019-04-05T06:34:21.096Z,23.77
2019-04-05T06:40:25.545Z,21.37
2019-04-05T06:46:29.768Z,19.73
2019-04-05T06:52:33.984Z,18.77
2019-04-05T06:58:38.358Z,16.93
2019-04-05T07:04:42.696Z,16.30
2019-04-05T07:10:46.889Z,14.97
2019-04-05T07:16:51.159Z,17.17
2019-04-05T07:22:55.363Z,16.95
2019-04-05T07:28:59.642Z,14.90
2019-04-05T07:35:03.816Z,16.17
2019-04-05T07:41:08.224Z,18.32
2019-04-05T07:47:12.411Z,13.72
2019-04-05T07:53:16.723Z,13.78
2019-04-05T07:59:21.511Z,12.40
2019-04-05T08:05:25.698Z,10.80
2019-04-05T08:11:30.796Z,11.55
2019-04-05T08:17:34.978Z,9.13
2019-04-05T08:23:39.183Z,9.85
2019-04-05T08:29:43.442Z,9.23
2019-04-05T08:35:47.618Z,10.08
2019-04-05T08:41:51.967Z,7.65
2019-04-05T08:47:56.231Z,8.38
2019-04-05T08:54:00.481Z,11.30
2019-04-05T09:00:05.680Z,9.95
2019-04-05T09:06:10.022Z,9.45
2019-04-05T09:12:14.210Z,9.10
2019-04-05T09:18:18.568Z,7.50
2019-04-05T09:24:22.756Z,6.87
2019-04-05T09:30:27.024Z,7.40
2019-04-05T09:36:31.230Z,4.30
2019-04-05T09:42:35.431Z,5.35
2019-04-05T09:48:39.936Z,5.10
2019-04-05T09:54:44.284Z,4.10
2019-04-05T10:00:48.484Z,3.62
2019-04-05T10:06:52.828Z,3.85
2019-04-05T10:12:57.221Z,5.37
2019-04-05T10:19:01.462Z,4.22
2019-04-05T10:25:05.931Z,4.17
2019-04-05T10:31:10.128Z,3.58
2019-04-05T10:37:14.389Z,6.15
2019-04-05T10:43:18.650Z,3.20
2019-04-05T10:49:22.973Z,4.45
2019-04-05T10:55:27.177Z,3.52
2019-04-05T11:01:31.537Z,5.08
2019-04-05T11:07:35.737Z,4.53
2019-04-05T11:13:40.049Z,4.15
2019-04-05T11:19:44.234Z,4.17
2019-04-05T11:25:48.488Z,5.20
2019-04-05T11:31:57.204Z,3.95
2019-04-05T11:37:58.667Z,4.72
2019-04-05T11:44:03.734Z,3.77
2019-04-05T11:50:10.716Z,3.67
2019-04-05T11:56:17.468Z,2.65
2019-04-05T12:02:30.573Z,4.40
2019-04-05T12:08:34.887Z,3.70
2019-04-05T12:14:39.118Z,4.83
2019-04-05T12:20:50.912Z,3.75
2019-04-05T12:26:49.465Z,2.65
2019-04-05T12:32:53.697Z,3.42
2019-04-05T12:38:57.971Z,3.83
2019-04-05T12:45:02.254Z,5.65
2019-04-05T12:51:06.515Z,3.70
2019-04-05T12:57:10.697Z,4.05
2019-04-05T13:03:15.004Z,3.42
2019-04-05T13:09:19.209Z,5.05
2019-04-05T13:15:23.552Z,5.10
2019-04-05T13:21:27.866Z,5.70
2019-04-05T13:27:33.123Z,5.80
2019-04-05T13:33:37.437Z,5.95
2019-04-05T13:39:41.616Z,4.85
2019-04-05T13:45:45.825Z,5.25
2019-04-05T13:51:50.064Z,5.92
2019-04-05T13:57:54.264Z,6.15
2019-04-05T14:04:01.670Z,5.87
2019-04-05T14:10:10.764Z,5.60
2019-04-05T14:16:13.115Z,6.90
2019-04-05T14:22:17.419Z,7.22
2019-04-05T14:28:21.671Z,6.37
2019-04-05T14:34:25.915Z,5.55
2019-04-05T14:40:32.933Z,5.90
2019-04-05T14:46:38.334Z,6.70
2019-04-05T14:52:42.448Z,6.75
2019-04-05T14:58:46.644Z,6.42
2019-04-05T15:04:51.164Z,6.20
2019-04-05T15:10:56.921Z,6.45
2019-04-05T15:17:01.274Z,7.75
2019-04-05T15:23:05.529Z,6.90
2019-04-05T15:29:09.899Z,7.03
2019-04-05T15:35:14.592Z,7.08
2019-04-05T15:41:18.905Z,7.50
2019-04-05T15:47:23.851Z,8.23
2019-04-05T15:53:32.099Z,7.22
2019-04-05T15:59:37.024Z,7.08
2019-04-05T16:05:41.395Z,6.37
2019-04-05T16:11:45.575Z,7.35
2019-04-05T16:17:49.953Z,7.22
2019-04-05T16:23:54.191Z,7.17
2019-04-05T16:30:01.095Z,9.33
2019-04-05T16:36:05.534Z,10.48
2019-04-05T16:42:10.330Z,10.63
2019-04-05T16:48:14.701Z,9.83
2019-04-05T16:54:19.315Z,13.83
2019-04-05T17:00:23.814Z,15.70
2019-04-05T17:06:28.177Z,16.12
2019-04-05T17:12:32.434Z,17.52
2019-04-05T17:18:36.923Z,17.37
2019-04-05T17:24:41.146Z,16.20
2019-04-05T17:30:46.090Z,18.87
2019-04-05T17:36:50.366Z,17.75
2019-04-05T17:42:54.876Z,19.55
2019-04-05T17:48:59.166Z,19.35
2019-04-05T17:55:04.136Z,19.57
2019-04-05T18:01:08.505Z,19.67
2019-04-05T18:07:12.810Z,20.75
2019-04-05T18:13:17.028Z,22.30
2019-04-05T18:19:21.235Z,22.95
2019-04-05T18:25:25.610Z,23.02
2019-04-05T18:31:30.316Z,24.75
2019-04-05T18:37:35.334Z,25.15
2019-04-05T18:43:39.779Z,36.00
2019-04-05T18:49:44.091Z,29.57
2019-04-05T18:55:48.376Z,31.25
2019-04-05T19:01:52.655Z,24.95
2019-04-05T19:07:57.061Z,20.55
2019-04-05T19:14:01.677Z,19.85
2019-04-05T19:20:06.627Z,16.15
2019-04-05T19:26:11.812Z,17.17
2019-04-05T19:50:37.029Z,18.42
2019-04-05T19:56:41.382Z,18.25
2019-04-05T20:02:45.833Z,17.70
2019-04-05T20:08:50.129Z,17.40
2019-04-05T20:14:54.477Z,18.07
2019-04-05T20:20:58.882Z,20.72
2019-04-05T20:27:03.104Z,18.15
2019-04-05T20:33:10.029Z,18.20
2019-04-05T20:39:14.215Z,19.42
2019-04-05T20:45:18.471Z,33.38
2019-04-05T20:51:22.954Z,18.62
2019-04-05T20:57:27.157Z,27.17
2019-04-05T21:03:31.344Z,18.65
2019-04-05T21:09:35.617Z,18.73
2019-04-05T21:15:39.832Z,17.50
2019-04-05T21:21:44.172Z,18.32
2019-04-05T21:27:48.546Z,17.95
2019-04-05T21:33:52.876Z,20.65
2019-04-05T21:39:57.248Z,21.40
2019-04-05T21:46:01.786Z,23.30
2019-04-05T21:52:06.421Z,25.23
2019-04-05T21:58:10.769Z,26.60
2019-04-05T22:04:15.105Z,28.50
2019-04-05T22:10:19.437Z,31.10
2019-04-05T22:16:23.885Z,31.82
2019-04-05T22:22:28.409Z,32.50
2019-04-05T22:28:32.774Z,36.40
2019-04-05T22:34:37.191Z,43.75
2019-04-05T22:40:41.777Z,44.42
2019-04-05T22:46:46.337Z,45.50
2019-04-05T22:52:50.681Z,48.35
2019-04-05T22:58:55.175Z,51.95
2019-04-05T23:05:00.912Z,50.48
2019-04-05T23:11:05.714Z,54.73
2019-04-05T23:17:10.081Z,54.45
2019-04-05T23:23:14.544Z,58.42
2019-04-05T23:29:19.142Z,55.40
2019-04-05T23:35:23.780Z,60.88
2019-04-05T23:41:28.413Z,60.17
2019-04-05T23:47:33.064Z,61.92
2019-04-05T23:53:37.422Z,66.02
2019-04-05T23:59:41.744Z,66.05
